createdAt,value
2022-08-05T00:00:26.030Z,49.79
2022-08-05T00:02:57.680Z,48.90
2022-08-05T00:06:04.908Z,49.65
2022-08-05T00:08:34.364Z,49.03
2022-08-05T00:11:07.609Z,49.75
2022-08-05T00:13:53.141Z,50.31
2022-08-05T00:16:35.721Z,49.75
2022-08-05T00:19:08.628Z,50.39
2022-08-05T00:21:42.639Z,50.72
2022-08-05T00:24:16.118Z,50.15
2022-08-05T00:26:52.179Z,51.44
2022-08-05T00:29:25.406Z,51.02
2022-08-05T00:32:12.571Z,51.61
2022-08-05T00:35:05.558Z,51.55
2022-08-05T00:37:53.235Z,52.09
2022-08-05T00:40:27.733Z,52.43
2022-08-05T00:43:00.263Z,52.57
2022-08-05T00:45:38.580Z,52.76
2022-08-05T00:48:14.740Z,53.07
2022-08-05T00:50:46.724Z,53.83
2022-08-05T00:54:00.971Z,53.42
2022-08-05T00:56:10.451Z,54.39
2022-08-05T00:58:45.017Z,55.62
2022-08-05T01:01:24.942Z,55.22
2022-08-05T01:04:14.112Z,55.57
2022-08-05T01:06:48.746Z,55.67
2022-08-05T01:09:20.594Z,56.23
2022-08-05T01:11:52.489Z,55.60
2022-08-05T01:14:27.812Z,56.60
2022-08-05T01:17:00.496Z,56.97
2022-08-05T01:19:56.151Z,57.29
2022-08-05T01:22:27.937Z,57.90
2022-08-05T01:25:00.273Z,58.45
2022-08-05T01:27:33.045Z,59.08
2022-08-05T01:30:05.224Z,60.34
2022-08-05T01:32:49.263Z,60.82
2022-08-05T01:35:51.639Z,61.84
2022-08-05T01:38:14.574Z,62.39
2022-08-05T01:40:56.765Z,63.08
2022-08-05T01:43:28.710Z,63.84
2022-08-05T01:46:07.143Z,64.56
2022-08-05T01:48:49.787Z,65.14
2022-08-05T01:51:21.810Z,65.57
2022-08-05T01:53:57.391Z,66.16
2022-08-05T01:58:09.432Z,66.45
2022-08-05T01:59:22.469Z,66.81
2022-08-05T02:01:54.717Z,67.23
2022-08-05T02:04:26.966Z,67.15
2022-08-05T02:06:58.853Z,67.46
2022-08-05T02:09:30.364Z,67.73
2022-08-05T02:12:04.084Z,67.90
2022-08-05T02:14:35.608Z,68.17
2022-08-05T02:17:08.191Z,68.18
2022-08-05T02:19:49.614Z,68.52
2022-08-05T02:22:26.671Z,68.51
2022-08-05T02:25:00.214Z,68.99
2022-08-05T02:27:59.778Z,68.91
2022-08-05T02:30:23.879Z,69.51
2022-08-05T02:32:58.525Z,69.72
2022-08-05T02:35:33.400Z,69.95
2022-08-05T02:38:09.734Z,70.13
2022-08-05T02:40:45.080Z,70.06
2022-08-05T02:43:19.026Z,70.17
2022-08-05T02:45:52.879Z,70.13
2022-08-05T02:48:29.104Z,70.36
2022-08-05T02:51:01.479Z,70.19
2022-08-05T02:53:39.173Z,70.67
2022-08-05T02:56:15.969Z,70.51
2022-08-05T02:58:51.413Z,70.58
2022-08-05T03:01:24.881Z,70.29
2022-08-05T03:04:02.651Z,70.38
2022-08-05T03:06:56.095Z,70.22
2022-08-05T03:09:27.061Z,69.91
2022-08-05T03:12:09.467Z,69.87
2022-08-05T03:14:45.698Z,69.93
2022-08-05T03:17:18.174Z,69.88
2022-08-05T03:19:51.801Z,69.40
2022-08-05T03:22:32.523Z,69.05
2022-08-05T03:25:33.207Z,68.84
2022-08-05T03:27:58.949Z,68.71
2022-08-05T03:30:35.188Z,68.46
2022-08-05T03:33:07.346Z,68.62
2022-08-05T03:35:40.831Z,68.50
2022-08-05T03:38:14.277Z,68.45
2022-08-05T03:40:48.537Z,68.46
2022-08-05T03:44:08.598Z,68.35
2022-08-05T03:46:12.465Z,68.57
2022-08-05T03:48:45.379Z,68.38
2022-08-05T03:52:37.066Z,68.57
2022-08-05T03:55:54.743Z,68.36
2022-08-05T03:57:01.836Z,68.58
2022-08-05T03:59:54.849Z,68.30
2022-08-05T04:02:37.396Z,68.56
2022-08-05T04:05:10.221Z,68.59
2022-08-05T04:07:58.080Z,68.40
2022-08-05T04:10:37.553Z,68.36
2022-08-05T04:13:10.039Z,68.36
2022-08-05T04:16:03.307Z,68.20
2022-08-05T04:18:34.432Z,67.88
2022-08-05T04:21:06.227Z,67.65
2022-08-05T04:24:05.163Z,67.42
2022-08-05T04:26:32.341Z,66.89
2022-08-05T04:29:07.312Z,66.44
2022-08-05T04:31:39.506Z,65.88
2022-08-05T04:34:32.968Z,65.49
2022-08-05T04:37:03.479Z,65.33
2022-08-05T04:39:35.369Z,64.92
2022-08-05T04:42:07.539Z,64.99
2022-08-05T04:44:40.628Z,64.48
2022-08-05T04:47:16.985Z,64.34
2022-08-05T04:50:02.906Z,63.58
2022-08-05T04:52:43.300Z,62.94
2022-08-05T04:55:16.366Z,62.61
2022-08-05T04:57:54.011Z,62.27
2022-08-05T05:00:26.030Z,62.00
2022-08-05T05:03:02.866Z,61.65
2022-08-05T05:06:40.533Z,61.81
2022-08-05T05:08:30.267Z,61.25
2022-08-05T05:11:02.148Z,61.17
2022-08-05T05:13:43.515Z,61.04
2022-08-05T05:16:16.119Z,60.29
2022-08-05T05:19:16.361Z,60.39
2022-08-05T05:21:43.259Z,60.10
2022-08-05T05:24:18.393Z,60.55
2022-08-05T05:26:51.776Z,60.77
2022-08-05T05:29:23.981Z,61.25
2022-08-05T05:32:15.659Z,62.13
2022-08-05T05:34:49.858Z,61.59
2022-08-05T05:37:37.512Z,61.54
2022-08-05T05:40:16.258Z,62.87
2022-08-05T05:42:51.638Z,62.87
2022-08-05T05:45:23.261Z,63.33
2022-08-05T05:48:07.110Z,62.62
2022-08-05T05:50:42.561Z,63.00
2022-08-05T05:53:22.212Z,63.21
2022-08-05T05:56:00.701Z,64.29
2022-08-05T05:58:35.003Z,64.52
2022-08-05T06:01:13.405Z,64.75
2022-08-05T06:04:00.719Z,64.84
2022-08-05T06:06:34.940Z,64.56
2022-08-05T06:09:07.661Z,64.63
2022-08-05T06:11:39.526Z,64.47
2022-08-05T06:14:11.434Z,64.08
2022-08-05T06:16:43.022Z,63.94
2022-08-05T06:19:33.005Z,64.68
2022-08-05T06:22:06.917Z,65.97
2022-08-05T06:24:38.811Z,67.01
2022-08-05T06:27:17.174Z,68.91
2022-08-05T06:30:05.958Z,68.30
2022-08-05T06:32:50.723Z,68.74
2022-08-05T06:36:03.925Z,68.72
2022-08-05T06:38:14.542Z,66.89
2022-08-05T06:40:47.649Z,66.46
2022-08-05T06:43:58.763Z,65.19
2022-08-05T06:46:13.011Z,64.40
2022-08-05T06:48:56.311Z,64.57
2022-08-05T06:51:31.283Z,62.37
2022-08-05T06:54:03.364Z,61.71
2022-08-05T06:56:35.293Z,61.90
2022-08-05T06:59:08.653Z,61.25
2022-08-05T07:01:42.436Z,61.89
2022-08-05T07:04:14.407Z,60.62
2022-08-05T07:06:50.672Z,60.14
2022-08-05T07:09:24.963Z,59.34
2022-08-05T07:11:56.723Z,59.38
2022-08-05T07:14:54.102Z,56.85
2022-08-05T07:17:59.397Z,56.42
2022-08-05T07:20:32.991Z,56.74
2022-08-05T07:23:06.526Z,56.68
2022-08-05T07:25:55.274Z,56.64
2022-08-05T07:28:28.747Z,58.66
2022-08-05T07:31:00.295Z,59.43
2022-08-05T07:33:36.745Z,60.72
2022-08-05T07:36:20.125Z,60.34
2022-08-05T07:38:55.051Z,61.51
2022-08-05T07:42:09.015Z,62.90
2022-08-05T07:44:19.389Z,63.20
2022-08-05T07:46:51.193Z,63.45
2022-08-05T07:49:23.315Z,63.72
2022-08-05T07:51:55.275Z,63.85
2022-08-05T07:54:30.735Z,64.23
2022-08-05T07:57:17.627Z,65.12
2022-08-05T07:59:55.286Z,66.43
2022-08-05T08:02:31.421Z,66.73
2022-08-05T08:05:19.306Z,66.79
2022-08-05T08:07:59.745Z,69.17
2022-08-05T08:10:32.202Z,71.75
2022-08-05T08:13:04.841Z,72.11
2022-08-05T08:16:50.075Z,70.17
2022-08-05T08:18:29.390Z,69.79
2022-08-05T08:21:03.650Z,67.94
2022-08-05T08:24:01.457Z,66.27
2022-08-05T08:26:29.604Z,64.33
2022-08-05T08:29:21.636Z,64.41
2022-08-05T08:31:53.337Z,64.52
2022-08-05T08:34:29.993Z,64.97
2022-08-05T08:37:05.558Z,65.04
2022-08-05T08:39:38.186Z,65.34
2022-08-05T08:42:34.127Z,65.97
2022-08-05T08:45:24.434Z,66.36
2022-08-05T08:48:12.497Z,66.84
2022-08-05T08:51:23.079Z,68.60
2022-08-05T08:53:45.023Z,73.31
2022-08-05T08:56:17.316Z,75.08
2022-08-05T08:58:50.497Z,75.54
2022-08-05T09:01:22.298Z,76.54
2022-08-05T09:03:57.230Z,76.15
2022-08-05T09:06:30.502Z,77.30
2022-08-05T09:09:02.553Z,75.20
2022-08-05T09:11:52.037Z,74.74
2022-08-05T09:14:56.411Z,73.91
2022-08-05T09:17:42.238Z,70.83
2022-08-05T09:20:09.019Z,69.69
2022-08-05T09:22:40.524Z,69.07
2022-08-05T09:26:00.154Z,67.71
2022-08-05T09:28:15.712Z,65.03
2022-08-05T09:30:53.323Z,64.45
2022-08-05T09:33:35.106Z,62.79
2022-08-05T09:36:11.801Z,60.82
2022-08-05T09:38:48.404Z,60.25
2022-08-05T09:41:20.916Z,59.67
2022-08-05T09:43:53.246Z,59.64
2022-08-05T09:46:28.192Z,61.55
2022-08-05T09:49:08.094Z,61.52
2022-08-05T09:51:51.187Z,63.70
2022-08-05T09:54:29.346Z,64.88
2022-08-05T09:57:01.598Z,65.07
2022-08-05T09:59:35.104Z,67.18
2022-08-05T10:02:08.869Z,69.48
2022-08-05T10:04:44.217Z,72.21
2022-08-05T10:07:20.498Z,73.07
2022-08-05T10:10:15.092Z,74.25
2022-08-05T10:12:49.908Z,76.39
2022-08-05T10:15:22.086Z,75.81
2022-08-05T10:17:56.541Z,72.83
2022-08-05T10:20:29.480Z,72.80
2022-08-05T10:23:01.331Z,70.26
2022-08-05T10:25:33.311Z,70.04
2022-08-05T10:28:13.895Z,68.35
2022-08-05T10:32:47.307Z,69.60
2022-08-05T10:33:41.561Z,71.80
2022-08-05T10:36:13.359Z,74.13
2022-08-05T10:38:47.462Z,78.64
2022-08-05T10:41:23.613Z,81.15
2022-08-05T10:43:55.627Z,88.16
2022-08-05T10:46:27.150Z,89.11
2022-08-05T10:49:05.065Z,91.33
2022-08-05T10:51:58.335Z,94.27
2022-08-05T10:54:34.952Z,93.82
2022-08-05T10:57:18.396Z,89.87
2022-08-05T11:00:03.195Z,97.52
2022-08-05T11:02:43.726Z,97.89
2022-08-05T11:05:24.303Z,100.00
2022-08-05T11:08:02.669Z,96.76
2022-08-05T11:10:50.431Z,80.30
2022-08-05T11:13:30.978Z,80.13
2022-08-05T11:16:10.238Z,76.62
2022-08-05T11:18:43.587Z,72.06
2022-08-05T11:21:19.084Z,72.73
2022-08-05T11:24:04.886Z,66.31
2022-08-05T11:26:49.576Z,62.18
2022-08-05T11:29:21.721Z,60.65
2022-08-05T11:32:00.527Z,58.52
2022-08-05T11:34:32.841Z,59.68
2022-08-05T11:38:14.280Z,57.76
2022-08-05T11:40:02.753Z,59.94
2022-08-05T11:42:37.911Z,56.37
2022-08-05T11:45:23.418Z,54.53
2022-08-05T11:48:04.033Z,56.08
2022-08-05T11:50:35.558Z,55.90
2022-08-05T11:53:09.852Z,52.38
2022-08-05T11:55:41.944Z,53.59
2022-08-05T11:58:17.295Z,52.79
2022-08-05T12:00:52.869Z,53.41
2022-08-05T12:03:31.580Z,50.92
2022-08-05T12:06:05.971Z,53.25
2022-08-05T12:08:48.016Z,52.36
2022-08-05T12:11:22.903Z,53.97
2022-08-05T12:13:55.086Z,53.08
2022-08-05T12:16:30.289Z,50.40
2022-08-05T12:19:02.169Z,54.28
2022-08-05T12:21:33.688Z,49.39
2022-08-05T12:24:11.092Z,47.68
2022-08-05T12:26:43.961Z,47.32
2022-08-05T12:29:17.785Z,47.22
2022-08-05T12:31:53.828Z,44.98
2022-08-05T12:34:28.776Z,43.53
2022-08-05T12:37:00.426Z,44.02
2022-08-05T12:39:37.068Z,47.45
2022-08-05T12:42:10.427Z,45.47
2022-08-05T12:44:47.382Z,45.58
2022-08-05T12:47:19.317Z,43.93
2022-08-05T12:50:02.305Z,43.97
2022-08-05T12:52:39.014Z,44.26
2022-08-05T12:55:13.965Z,44.18
2022-08-05T12:58:48.440Z,42.98
2022-08-05T13:01:59.785Z,41.78
2022-08-05T13:03:31.923Z,41.43
2022-08-05T13:06:04.364Z,43.72
2022-08-05T13:08:36.180Z,42.01
2022-08-05T13:11:09.359Z,40.45
2022-08-05T13:14:05.713Z,41.64
2022-08-05T13:16:33.645Z,41.93
2022-08-05T13:19:05.642Z,42.77
2022-08-05T13:21:52.326Z,44.24
2022-08-05T13:24:51.380Z,43.41
2022-08-05T13:27:35.414Z,43.20
2022-08-05T13:30:34.658Z,41.07
2022-08-05T13:33:02.339Z,40.40
2022-08-05T13:35:50.313Z,39.66
2022-08-05T13:38:36.041Z,39.25
2022-08-05T13:41:09.865Z,40.98
2022-08-05T13:43:45.474Z,39.99
2022-08-05T13:46:44.248Z,43.23
2022-08-05T13:49:19.722Z,45.38
2022-08-05T13:51:52.891Z,46.64
2022-08-05T13:54:26.866Z,45.39
2022-08-05T13:56:58.368Z,46.22
2022-08-05T13:59:30.937Z,46.65
2022-08-05T14:02:02.511Z,48.05
2022-08-05T14:04:53.058Z,47.43
2022-08-05T14:08:00.751Z,46.90
2022-08-05T14:10:18.728Z,44.72
2022-08-05T14:12:54.644Z,45.72
2022-08-05T14:16:07.498Z,46.40
2022-08-05T14:18:23.493Z,46.65
2022-08-05T14:20:55.732Z,48.59
2022-08-05T14:23:34.901Z,49.53
2022-08-05T14:26:08.299Z,49.10
2022-08-05T14:29:00.175Z,49.09
2022-08-05T14:32:03.751Z,50.10
2022-08-05T14:34:23.790Z,49.92
2022-08-05T14:36:55.873Z,50.32
2022-08-05T14:39:27.430Z,50.20
2022-08-05T14:42:19.076Z,49.89
2022-08-05T14:44:52.582Z,50.75
2022-08-05T14:47:58.334Z,50.13
2022-08-05T14:50:19.035Z,49.90
2022-08-05T14:52:56.850Z,48.29
2022-08-05T14:55:39.220Z,47.98
2022-08-05T14:58:13.916Z,50.74
2022-08-05T15:00:59.592Z,52.23
2022-08-05T15:03:34.158Z,53.38
2022-08-05T15:06:14.797Z,53.50
2022-08-05T15:09:01.403Z,55.63
2022-08-05T15:11:52.974Z,55.93
2022-08-05T15:14:34.921Z,56.92
2022-08-05T15:17:45.807Z,57.93
2022-08-05T15:20:08.840Z,58.38
2022-08-05T15:22:43.083Z,60.26
2022-08-05T15:25:16.402Z,61.47
2022-08-05T15:27:55.638Z,62.85
2022-08-05T15:30:28.748Z,63.42
2022-08-05T15:33:00.583Z,63.97
2022-08-05T15:35:36.311Z,64.68
2022-08-05T15:38:35.815Z,66.06
2022-08-05T15:41:21.997Z,66.25
2022-08-05T15:43:55.442Z,66.93
2022-08-05T15:46:27.270Z,67.06
2022-08-05T15:49:09.722Z,66.91
2022-08-05T15:52:04.107Z,67.26
2022-08-05T15:54:34.898Z,67.68
2022-08-05T15:57:07.860Z,67.96
2022-08-05T15:59:39.534Z,69.28
2022-08-05T16:02:14.707Z,70.27
2022-08-05T16:04:52.747Z,70.84
2022-08-05T16:07:24.659Z,70.61
2022-08-05T16:10:01.045Z,71.29
2022-08-05T16:12:33.062Z,71.71
2022-08-05T16:15:04.615Z,71.10
2022-08-05T16:17:36.474Z,71.48
2022-08-05T16:20:11.615Z,71.96
2022-08-05T16:22:44.088Z,70.67
2022-08-05T16:25:15.867Z,70.01
2022-08-05T16:28:05.659Z,70.60
2022-08-05T16:30:37.893Z,70.28
2022-08-05T16:33:09.641Z,70.05
2022-08-05T16:35:44.590Z,70.15
2022-08-05T16:38:25.184Z,70.63
2022-08-05T16:41:00.923Z,71.71
2022-08-05T16:43:33.250Z,72.26
2022-08-05T16:46:24.016Z,72.96
2022-08-05T16:48:56.396Z,75.83
2022-08-05T16:51:30.739Z,76.80
2022-08-05T16:54:17.323Z,75.44
2022-08-05T16:56:52.168Z,73.21
2022-08-05T16:59:23.886Z,73.10
2022-08-05T17:01:56.440Z,74.50
2022-08-05T17:04:28.545Z,74.09
2022-08-05T17:07:01.421Z,74.24
2022-08-05T17:09:38.845Z,76.24
2022-08-05T17:12:51.766Z,77.11
2022-08-05T17:15:19.563Z,78.88
2022-08-05T17:18:02.245Z,79.28
2022-08-05T17:20:33.952Z,80.65
2022-08-05T17:23:05.815Z,81.51
2022-08-05T17:25:40.418Z,81.75
2022-08-05T17:28:15.588Z,81.86
2022-08-05T17:30:51.882Z,83.04
2022-08-05T17:33:23.914Z,83.90
2022-08-05T17:36:07.444Z,82.99
2022-08-05T17:38:40.864Z,82.28
2022-08-05T17:42:16.563Z,81.80
2022-08-05T17:44:04.805Z,82.04
2022-08-05T17:46:36.374Z,81.49
2022-08-05T17:49:08.051Z,82.34
2022-08-05T17:51:40.375Z,82.53
2022-08-05T17:54:12.289Z,82.15
2022-08-05T17:56:49.099Z,80.29
2022-08-05T17:59:22.934Z,78.81
2022-08-05T18:01:55.070Z,78.68
2022-08-05T18:04:27.907Z,78.81
2022-08-05T18:07:02.621Z,78.75
2022-08-05T18:09:59.848Z,78.96
2022-08-05T18:12:26.233Z,80.27
2022-08-05T18:14:57.950Z,81.34
2022-08-05T18:18:01.310Z,81.39
2022-08-05T18:20:29.408Z,82.58
2022-08-05T18:23:08.966Z,83.29
2022-08-05T18:25:44.830Z,83.63
2022-08-05T18:28:17.948Z,85.25
2022-08-05T18:30:53.689Z,85.40
2022-08-05T18:33:25.710Z,86.31
2022-08-05T18:36:04.977Z,85.60
2022-08-05T18:38:38.906Z,84.37
2022-08-05T18:41:58.335Z,83.58
2022-08-05T18:44:05.821Z,82.71
2022-08-05T18:46:41.039Z,83.13
2022-08-05T18:49:44.497Z,82.54
2022-08-05T18:52:50.897Z,82.24
2022-08-05T18:55:23.243Z,81.18
2022-08-05T18:58:03.519Z,80.66
2022-08-05T19:00:35.161Z,79.85
2022-08-05T19:03:07.194Z,78.00
2022-08-05T19:06:11.690Z,78.33
2022-08-05T19:08:31.298Z,79.75
2022-08-05T19:11:05.251Z,80.33
2022-08-05T19:13:39.458Z,81.51
2022-08-05T19:16:24.313Z,80.73
2022-08-05T19:18:57.586Z,80.57
2022-08-05T19:21:29.509Z,79.81
2022-08-05T19:24:12.581Z,78.32
2022-08-05T19:26:55.435Z,76.27
2022-08-05T19:29:36.057Z,74.94
2022-08-05T19:32:11.697Z,74.41
2022-08-05T19:34:54.992Z,74.00
2022-08-05T19:37:29.752Z,74.01
2022-08-05T19:40:18.660Z,73.05
2022-08-05T19:43:04.900Z,71.81
2022-08-05T19:45:37.314Z,71.49
2022-08-05T19:48:14.347Z,71.49
2022-08-05T19:50:46.369Z,71.24
2022-08-05T19:53:17.942Z,71.51
2022-08-05T19:56:15.022Z,71.03
2022-08-05T19:58:53.910Z,71.47
2022-08-05T20:01:28.458Z,71.05
2022-08-05T20:04:00.315Z,71.12
2022-08-05T20:06:37.790Z,70.62
2022-08-05T20:09:17.534Z,70.62
2022-08-05T20:11:49.549Z,70.51
2022-08-05T20:14:27.106Z,69.73
2022-08-05T20:16:59.355Z,69.79
2022-08-05T20:19:36.337Z,70.44
2022-08-05T20:22:13.485Z,70.95
2022-08-05T20:24:45.022Z,70.65
2022-08-05T20:27:16.907Z,71.29
2022-08-05T20:29:58.228Z,71.27
2022-08-05T20:32:30.754Z,71.75
2022-08-05T20:35:04.719Z,72.54
2022-08-05T20:38:06.741Z,72.39
2022-08-05T20:40:30.376Z,72.30
2022-08-05T20:43:04.697Z,73.14
2022-08-05T20:45:55.878Z,72.94
2022-08-05T20:48:28.360Z,73.58
2022-08-05T20:50:59.918Z,74.57
2022-08-05T20:53:40.981Z,74.61
2022-08-05T20:56:12.823Z,76.55
2022-08-05T20:58:44.395Z,77.04
2022-08-05T21:01:15.963Z,77.25
2022-08-05T21:03:48.238Z,77.62
2022-08-05T21:06:27.626Z,79.33
2022-08-05T21:09:00.461Z,79.68
2022-08-05T21:12:09.513Z,80.54
2022-08-05T21:14:26.729Z,80.99
2022-08-05T21:16:58.776Z,80.98
2022-08-05T21:19:47.006Z,81.11
2022-08-05T21:22:21.758Z,81.36
2022-08-05T21:24:54.968Z,81.18
2022-08-05T21:27:27.392Z,81.76
2022-08-05T21:30:01.941Z,82.14
2022-08-05T21:32:34.419Z,82.63
2022-08-05T21:35:17.554Z,83.83
2022-08-05T21:37:58.890Z,84.40
2022-08-05T21:40:30.494Z,84.03
2022-08-05T21:43:02.495Z,84.71
2022-08-05T21:45:57.002Z,85.58
2022-08-05T21:48:29.171Z,85.80
2022-08-05T21:51:03.452Z,87.33
2022-08-05T21:53:59.660Z,87.78
2022-08-05T21:56:35.539Z,88.71
2022-08-05T21:59:22.531Z,88.97
2022-08-05T22:01:57.013Z,89.33
2022-08-05T22:04:28.567Z,89.22
2022-08-05T22:07:00.475Z,90.20
2022-08-05T22:09:45.461Z,90.98
2022-08-05T22:12:18.173Z,91.02
2022-08-05T22:14:58.122Z,91.45
2022-08-05T22:17:31.864Z,92.00
2022-08-05T22:20:13.705Z,92.19
2022-08-05T22:23:17.060Z,92.72
2022-08-05T22:26:10.554Z,92.98
2022-08-05T22:28:43.440Z,92.79
2022-08-05T22:31:16.983Z,93.05
2022-08-05T22:33:57.387Z,93.07
2022-08-05T22:36:32.078Z,93.82
2022-08-05T22:39:04.385Z,93.44
2022-08-05T22:42:10.151Z,92.64
2022-08-05T22:44:33.327Z,91.83
2022-08-05T22:47:06.669Z,91.64
2022-08-05T22:50:20.848Z,90.69
2022-08-05T22:52:34.287Z,88.82
2022-08-05T22:55:18.611Z,87.13
2022-08-05T22:57:52.131Z,86.18
2022-08-05T23:00:23.717Z,86.20
2022-08-05T23:02:56.555Z,84.08
2022-08-05T23:05:29.672Z,83.53
2022-08-05T23:08:07.748Z,82.21
2022-08-05T23:10:43.274Z,81.91
2022-08-05T23:13:15.321Z,81.45
2022-08-05T23:15:50.257Z,80.55
2022-08-05T23:18:22.934Z,78.90
2022-08-05T23:20:54.630Z,78.91
2022-08-05T23:23:26.499Z,77.83
2022-08-05T23:26:05.215Z,78.09
2022-08-05T23:28:37.069Z,77.88
2022-08-05T23:31:17.363Z,78.29
2022-08-05T23:34:05.658Z,78.73
2022-08-05T23:36:39.856Z,79.07
2022-08-05T23:39:31.879Z,79.43
2022-08-05T23:42:04.168Z,79.95
2022-08-05T23:44:40.707Z,79.66
2022-08-05T23:47:16.252Z,79.98
2022-08-05T23:49:48.213Z,79.97
2022-08-05T23:52:27.536Z,79.72
2022-08-05T23:54:59.412Z,79.38
2022-08-05T23:57:31.332Z,79.47
